Time;durP1;ratioP1;P1;durP2;ratioP2;P2;SDS_P1;SDS_P2;PMS_P1;PMS_P2;Temp;Humidity;BMP_temperature;BMP_pressure;BME280_temperature;BME280_humidity;BME280_pressure;Samples;Min_cycle;Max_cycle;Signal;HPM_P1;HPM_P2
2021/06/09 00:02:14;;;;;;;6.83;4.53;;;;;;;17.48;55.68;101053.63;1723159;83;21015;-71
2021/06/09 00:04:40;;;;;;;7.37;4.92;;;;;;;17.44;55.72;101052.36;1714691;83;21635;-71
2021/06/09 00:07:06;;;;;;;10.08;6.70;;;;;;;17.40;55.77;101053.78;1726120;83;21737;-71
2021/06/09 00:09:32;;;;;;;8.23;5.45;;;;;;;17.37;55.81;101052.83;1701258;84;21030;-71
2021/06/09 00:11:58;;;;;;;8.25;5.15;;;;;;;17.32;55.85;101052.58;1701870;84;21074;-71
2021/06/09 00:14:24;;;;;;;9.45;4.92;;;;;;;17.23;55.94;101052.42;1690040;84;21098;-71
2021/06/09 00:16:50;;;;;;;10.20;4.83;;;;;;;17.19;56.00;101053.02;1690077;84;21006;-71
2021/06/09 00:19:16;;;;;;;7.70;4.25;;;;;;;17.16;56.08;101054.76;1675641;84;21152;-71
2021/06/09 00:21:47;;;;;;;7.83;3.77;;;;;;;17.09;56.14;101046.63;1673876;84;21507;-71
2021/06/09 00:24:10;;;;;;;8.23;4.08;;;;;;;17.05;56.20;101049.91;1689376;84;21006;-71
2021/06/09 00:26:36;;;;;;;5.33;3.70;;;;;;;17.02;56.26;101045.75;1673908;85;21585;-71
2021/06/09 00:29:02;;;;;;;5.65;3.50;;;;;;;16.98;56.28;101050.70;1673724;85;21014;-71
2021/06/09 00:31:28;;;;;;;7.75;3.87;;;;;;;16.94;56.37;101049.41;1696287;84;21740;-71
2021/06/09 00:33:54;;;;;;;5.20;4.20;;;;;;;16.92;56.39;101050.64;1696395;84;21006;-71
2021/06/09 00:36:20;;;;;;;6.20;3.95;;;;;;;16.90;56.42;101052.69;1673773;85;21010;-71
2021/06/09 00:38:46;;;;;;;5.03;4.28;;;;;;;16.86;56.50;101056.79;1679738;84;21019;-71
2021/06/09 00:41:12;;;;;;;7.58;4.35;;;;;;;16.82;56.57;101060.39;1702051;84;21022;-71
2021/06/09 00:43:38;;;;;;;4.72;3.47;;;;;;;16.73;56.65;101056.69;1699966;84;21140;-71
2021/06/09 00:46:09;;;;;;;6.03;3.50;;;;;;;16.63;56.75;101056.19;1673635;85;21034;-71
2021/06/09 00:48:38;;;;;;;8.43;3.90;;;;;;;16.57;56.85;101062.34;1697166;84;21038;-71
2021/06/09 00:51:09;;;;;;;5.05;4.10;;;;;;;16.49;56.97;101068.66;1702160;84;21027;-71
2021/06/09 00:53:37;;;;;;;6.12;3.90;;;;;;;16.42;57.08;101060.52;1699828;84;21058;-71
2021/06/09 00:56:12;;;;;;;6.15;3.77;;;;;;;16.36;57.18;101054.53;1690781;84;21150;-71
2021/06/09 00:58:40;;;;;;;6.50;3.70;;;;;;;16.33;57.29;101053.58;1701647;84;21004;-71
2021/06/09 01:01:07;;;;;;;7.17;3.77;;;;;;;16.30;57.35;101053.96;1701287;84;21074;-71
2021/06/09 01:03:33;;;;;;;4.85;3.80;;;;;;;16.25;57.45;101059.10;1701647;84;21031;-71
2021/06/09 01:05:59;;;;;;;6.75;3.67;;;;;;;16.23;57.52;101054.40;1674965;84;21105;-71
2021/06/09 01:08:26;;;;;;;7.72;3.95;;;;;;;16.20;57.61;101060.67;1691111;83;21151;-71
2021/06/09 01:10:52;;;;;;;4.72;3.65;;;;;;;16.17;57.70;101055.67;1676107;84;20995;-71
2021/06/09 01:13:24;;;;;;;5.28;3.85;;;;;;;16.14;57.77;101054.21;1668533;86;21018;-71
2021/06/09 01:15:50;;;;;;;5.60;3.70;;;;;;;16.08;57.82;101053.60;1688080;84;21059;-71
2021/06/09 01:18:17;;;;;;;7.85;4.35;;;;;;;16.05;57.91;101051.29;1684779;84;21022;-71
2021/06/09 01:20:44;;;;;;;7.53;3.80;;;;;;;16.01;57.99;101047.84;1696330;84;21133;-71
2021/06/09 01:23:10;;;;;;;4.55;3.67;;;;;;;15.96;58.06;101043.86;1693747;84;21081;-71
2021/06/09 01:25:36;;;;;;;5.80;3.98;;;;;;;15.92;58.13;101041.73;1670520;84;21014;-71
2021/06/09 01:28:02;;;;;;;6.62;3.58;;;;;;;15.85;58.22;101043.50;1677863;84;21574;-71
2021/06/09 01:30:28;;;;;;;6.25;4.00;;;;;;;15.81;58.28;101039.52;1694851;84;21014;-71
2021/06/09 01:32:54;;;;;;;6.42;3.87;;;;;;;15.75;58.38;101048.34;1696853;84;21092;-71
2021/06/09 01:35:20;;;;;;;7.17;4.05;;;;;;;15.67;58.50;101039.87;1680034;84;21015;-71
2021/06/09 01:37:48;;;;;;;4.17;3.30;;;;;;;15.62;58.56;101044.16;1660166;84;21015;-71
2021/06/09 01:40:17;;;;;;;5.42;3.30;;;;;;;15.59;58.64;101051.22;1668902;86;21006;-71
2021/06/09 01:42:43;;;;;;;4.55;3.80;;;;;;;15.55;58.72;101049.95;1668936;85;21070;-71
2021/06/09 01:45:13;;;;;;;4.10;3.27;;;;;;;15.49;58.83;101048.31;1670427;84;21158;-71
2021/06/09 01:47:39;;;;;;;7.42;3.65;;;;;;;15.43;58.95;101053.07;1696428;84;21506;-71
2021/06/09 01:50:08;;;;;;;4.05;3.17;;;;;;;15.34;59.07;101050.13;1692362;84;21576;-71
2021/06/09 01:52:34;;;;;;;4.75;3.20;;;;;;;15.28;59.20;101048.19;1673020;84;21499;-71
2021/06/09 01:55:01;;;;;;;4.95;3.42;;;;;;;15.23;59.33;101050.61;1696378;84;21015;-71
2021/06/09 01:57:27;;;;;;;4.60;3.05;;;;;;;15.20;59.44;101046.92;1693199;84;21090;-71
2021/06/09 01:59:53;;;;;;;6.25;2.92;;;;;;;15.14;59.58;101044.98;1696847;84;20998;-71
2021/06/09 02:02:19;;;;;;;5.15;3.47;;;;;;;15.13;59.75;101044.64;1696865;84;21039;-71
2021/06/09 02:04:45;;;;;;;6.80;2.98;;;;;;;15.13;59.88;101044.64;1695928;84;21006;-71
2021/06/09 02:07:11;;;;;;;5.97;3.45;;;;;;;15.11;60.04;101045.34;1671144;84;21042;-71
2021/06/09 02:09:38;;;;;;;3.67;3.12;;;;;;;15.12;60.18;101052.40;1672701;84;21153;-71
2021/06/09 02:12:08;;;;;;;9.18;3.62;;;;;;;15.07;60.29;101043.20;1673595;85;20998;-71
2021/06/09 02:14:35;;;;;;;5.60;4.42;;;;;;;15.00;60.41;101046.63;1673583;85;21069;-71
2021/06/09 02:17:05;;;;;;;11.15;4.08;;;;;;;14.95;60.56;101045.52;1696550;84;21029;-71
2021/06/09 02:19:31;;;;;;;7.00;4.83;;;;;;;14.89;60.70;101045.72;1698861;84;21621;-71
2021/06/09 02:21:57;;;;;;;9.08;5.62;;;;;;;14.84;60.80;101048.64;1673583;85;22036;-72
2021/06/09 02:24:24;;;;;;;9.00;5.40;;;;;;;14.82;60.90;101046.13;1673578;85;20991;-71
2021/06/09 02:26:50;;;;;;;11.18;6.22;;;;;;;14.78;60.98;101049.34;1694399;84;21070;-71
2021/06/09 02:29:16;;;;;;;10.98;6.87;;;;;;;14.70;61.09;101046.25;1701820;84;21003;-71
2021/06/09 02:31:48;;;;;;;9.98;6.30;;;;;;;14.67;61.19;101049.80;1700206;83;21022;-72
2021/06/09 02:34:21;;;;;;;8.28;5.83;;;;;;;14.64;61.31;101048.80;1701610;84;21141;-71
2021/06/09 02:36:51;;;;;;;13.08;6.50;;;;;;;14.58;61.40;101046.33;1681953;84;21546;-71
2021/06/09 02:39:19;;;;;;;8.63;6.15;;;;;;;14.54;61.54;101050.39;1673859;85;21023;-71
2021/06/09 02:41:45;;;;;;;9.15;5.87;;;;;;;14.52;61.65;101047.06;1673951;84;21041;-71
2021/06/09 02:44:11;;;;;;;8.28;5.22;;;;;;;14.48;61.76;101042.56;1673787;85;21002;-71
2021/06/09 02:46:55;;;;;;;12.73;5.03;;;;;;;14.45;61.95;101041.58;1684083;84;21495;-71
2021/06/09 02:49:24;;;;;;;5.22;4.50;;;;;;;14.44;62.08;101048.45;1701975;84;21645;-71
2021/06/09 02:52:04;;;;;;;7.20;4.40;;;;;;;14.38;62.27;101048.67;1702169;83;21014;-71
2021/06/09 02:54:43;;;;;;;7.85;4.28;;;;;;;14.35;62.44;101049.04;1701932;84;21010;-71
2021/06/09 02:57:41;;;;;;;11.25;5.87;;;;;;;14.33;62.62;101048.83;1678726;84;21070;-71
2021/06/09 03:00:17;;;;;;;5.87;4.85;;;;;;;14.34;62.78;101052.73;1674539;84;21826;-71
2021/06/09 03:03:09;;;;;;;7.42;5.03;;;;;;;14.35;62.85;101045.52;1673547;85;21082;-71
2021/06/09 03:05:55;;;;;;;6.15;4.95;;;;;;;14.28;63.01;101041.34;1674939;84;21097;-70
2021/06/09 03:08:45;;;;;;;7.10;5.47;;;;;;;14.38;63.12;101055.39;1673774;84;21072;-71
2021/06/09 03:11:22;;;;;;;;;;;;;;;14.39;63.21;101059.72;1661934;85;21030;-71
2021/06/09 03:16:49;;;;;;;11.05;5.33;;;;;;;14.44;63.37;101060.03;1633474;85;20994;-71
2021/06/09 03:19:25;;;;;;;9.73;5.83;;;;;;;14.44;63.50;101043.92;1673530;84;21090;-70
2021/06/09 03:21:58;;;;;;;9.03;5.42;;;;;;;14.44;63.50;101043.92;1673580;85;21089;-71
2021/06/09 03:24:35;;;;;;;7.83;5.85;;;;;;;14.48;63.50;101035.85;1698774;84;21019;-71
2021/06/09 03:27:07;;;;;;;8.83;5.95;;;;;;;14.79;63.72;101049.68;1702026;84;21764;-70
2021/06/09 03:29:59;;;;;;;7.42;6.10;;;;;;;15.79;64.03;101047.80;1701660;84;21137;-71
2021/06/09 03:32:33;;;;;;;5.92;5.20;;;;;;;16.73;63.66;101050.79;1691752;84;21506;-71
2021/06/09 03:35:19;;;;;;;7.17;5.50;;;;;;;17.62;63.14;101048.33;1674554;84;21029;-71
2021/06/09 03:37:48;;;;;;;7.85;5.42;;;;;;;18.39;62.73;101037.49;1701880;84;21518;-71
2021/06/09 03:40:24;;;;;;;9.57;5.30;;;;;;;19.34;62.18;101041.66;1700795;84;21140;-71
2021/06/09 03:42:54;;;;;;;5.75;5.25;;;;;;;20.00;61.31;101035.52;1677053;84;21507;-71
2021/06/09 03:45:27;;;;;;;7.37;5.05;;;;;;;20.69;60.58;101038.22;1673803;85;21617;-72
2021/06/09 03:47:54;;;;;;;9.33;5.72;;;;;;;21.25;59.65;101041.44;1690819;84;21003;-72
2021/06/09 03:50:20;;;;;;;12.98;6.65;;;;;;;21.64;58.78;101034.75;1701764;84;21066;-72
2021/06/09 03:52:47;;;;;;;7.65;5.78;;;;;;;22.13;57.78;101029.09;1696738;84;21094;-72
2021/06/09 03:55:13;;;;;;;7.97;4.92;;;;;;;22.82;56.87;101028.50;1673748;85;21491;-72
2021/06/09 03:57:39;;;;;;;9.40;5.33;;;;;;;23.34;55.70;101033.53;1673729;85;20999;-72
2021/06/09 04:00:08;;;;;;;8.65;5.42;;;;;;;23.73;54.63;101033.31;1673739;85;21514;-72
2021/06/09 04:02:34;;;;;;;7.83;4.60;;;;;;;23.87;53.51;101036.59;1676280;84;21635;-72
2021/06/09 04:05:01;;;;;;;12.23;5.53;;;;;;;23.99;52.36;101031.95;1701552;84;21984;-72
2021/06/09 04:07:28;;;;;;;9.55;4.72;;;;;;;23.84;51.34;101036.55;1698882;84;21312;-72
2021/06/09 04:09:54;;;;;;;11.88;5.72;;;;;;;23.95;50.72;101030.77;1673365;84;21073;-72
2021/06/09 04:12:21;;;;;;;15.10;4.78;;;;;;;24.14;49.91;101031.42;1675115;84;21070;-72
2021/06/09 04:14:48;;;;;;;12.23;4.50;;;;;;;24.39;49.14;101033.26;1701040;84;21127;-72
2021/06/09 04:17:24;;;;;;;7.47;4.25;;;;;;;24.64;48.56;101035.61;1701867;84;21272;-72
2021/06/09 04:19:50;;;;;;;9.05;4.40;;;;;;;24.58;47.83;101036.60;1701739;84;21006;-72
2021/06/09 04:22:16;;;;;;;12.98;4.72;;;;;;;24.58;47.08;101044.25;1701328;84;21014;-72
2021/06/09 04:24:42;;;;;;;9.00;4.37;;;;;;;24.45;46.49;101047.83;1675636;84;21030;-72
2021/06/09 04:27:19;;;;;;;7.10;4.35;;;;;;;24.14;45.71;101040.42;1681142;84;20999;-72
2021/06/09 04:29:45;;;;;;;4.70;4.00;;;;;;;23.59;45.53;101043.35;1701178;84;21309;-72
2021/06/09 04:32:11;;;;;;;7.30;4.33;;;;;;;22.93;45.84;101052.70;1701924;84;21030;-72
2021/06/09 04:34:51;;;;;;;7.58;4.45;;;;;;;22.37;46.26;101057.22;1676404;83;21734;-72
2021/06/09 04:37:19;;;;;;;6.42;4.15;;;;;;;22.01;46.38;101058.13;1675013;84;20998;-72
2021/06/09 04:39:46;;;;;;;6.33;4.47;;;;;;;21.68;46.78;101053.58;1695909;84;21054;-72
2021/06/09 04:42:12;;;;;;;5.72;4.28;;;;;;;21.56;46.86;101053.52;1701913;84;21022;-72
2021/06/09 04:44:39;;;;;;;10.05;4.53;;;;;;;21.63;47.01;101052.92;1676772;84;21046;-72
2021/06/09 04:47:06;;;;;;;7.95;4.78;;;;;;;21.75;47.07;101051.09;1673408;85;21644;-72
2021/06/09 04:49:34;;;;;;;8.80;4.55;;;;;;;22.03;47.14;101053.27;1698963;84;21416;-72
2021/06/09 04:52:00;;;;;;;8.60;5.92;;;;;;;22.24;47.12;101052.78;1701190;84;21057;-72
2021/06/09 04:54:27;;;;;;;7.50;4.53;;;;;;;22.25;46.88;101054.97;1679595;84;21173;-72
2021/06/09 04:56:53;;;;;;;7.30;4.37;;;;;;;22.29;46.74;101049.38;1679591;84;21554;-72
2021/06/09 04:59:19;;;;;;;12.58;4.33;;;;;;;22.32;46.75;101049.74;1673789;85;21022;-72
2021/06/09 05:01:45;;;;;;;9.68;4.90;;;;;;;22.39;46.77;101051.84;1679015;84;21013;-72
2021/06/09 05:04:12;;;;;;;8.68;4.55;;;;;;;22.47;46.65;101053.92;1682850;84;21002;-72
2021/06/09 05:06:38;;;;;;;8.45;4.58;;;;;;;22.37;46.49;101057.22;1673803;85;21252;-72
2021/06/09 05:09:05;;;;;;;9.25;4.12;;;;;;;22.33;46.36;101057.37;1672239;84;21054;-72
2021/06/09 05:11:45;;;;;;;5.42;3.90;;;;;;;22.27;46.42;101052.31;1676659;84;21046;-72
2021/06/09 05:14:16;;;;;;;6.47;3.98;;;;;;;22.23;46.46;101062.53;1675830;84;21078;-72
2021/06/09 05:16:43;;;;;;;7.92;5.20;;;;;;;22.02;46.45;101058.43;1680416;84;21003;-72
2021/06/09 05:19:09;;;;;;;6.80;4.90;;;;;;;22.12;46.36;101060.06;1667993;86;21145;-71
2021/06/09 05:21:35;;;;;;;13.43;9.43;;;;;;;22.17;46.29;101060.19;1668000;86;21066;-72
2021/06/09 05:24:01;;;;;;;12.88;6.60;;;;;;;22.14;46.27;101063.38;1677158;84;21467;-72
2021/06/09 05:26:27;;;;;;;8.48;5.22;;;;;;;22.12;46.39;101057.35;1668487;84;21610;-72
2021/06/09 05:29:00;;;;;;;8.08;4.58;;;;;;;22.17;46.36;101064.27;1668929;86;20994;-72
2021/06/09 05:31:26;;;;;;;8.53;3.80;;;;;;;22.33;46.29;101060.92;1694024;84;21767;-72
2021/06/09 05:33:53;;;;;;;6.85;3.37;;;;;;;22.43;46.31;101067.68;1682827;84;21087;-72
2021/06/09 05:36:19;;;;;;;4.62;3.40;;;;;;;22.47;46.17;101066.16;1668730;86;21057;-72
2021/06/09 05:38:46;;;;;;;3.98;3.22;;;;;;;22.31;46.08;101063.03;1668774;86;21011;-72
2021/06/09 05:41:12;;;;;;;6.62;3.30;;;;;;;22.26;46.17;101066.98;1668721;86;21021;-72
2021/06/09 05:43:39;;;;;;;4.37;3.77;;;;;;;22.14;45.92;101066.09;1676953;84;21558;-72
2021/06/09 05:46:09;;;;;;;6.35;4.87;;;;;;;22.15;46.00;101069.11;1668843;84;21012;-72
2021/06/09 05:48:45;;;;;;;10.13;4.08;;;;;;;22.24;45.92;101066.36;1668613;84;21026;-72
2021/06/09 05:51:13;;;;;;;9.23;4.47;;;;;;;22.24;45.92;101069.08;1668568;86;21522;-72
2021/06/09 05:53:40;;;;;;;4.53;3.52;;;;;;;22.28;45.82;101062.66;1683365;84;21019;-72
2021/06/09 05:56:06;;;;;;;5.53;3.83;;;;;;;22.24;45.70;101066.36;1643669;86;21094;-72
2021/06/09 05:58:32;;;;;;;7.00;3.30;;;;;;;22.19;45.65;101066.24;1668997;84;21022;-72
2021/06/09 06:01:00;;;;;;;4.00;3.60;;;;;;;22.26;45.77;101065.62;1687923;84;21494;-72
2021/06/09 06:03:27;;;;;;;6.42;3.17;;;;;;;22.18;45.73;101073.25;1675284;84;21065;-71
2021/06/09 06:06:07;;;;;;;5.55;3.55;;;;;;;22.26;45.75;101072.41;1696772;84;21113;-72
2021/06/09 06:08:35;;;;;;;7.62;3.22;;;;;;;22.40;45.66;101075.77;1696955;84;21237;-72
2021/06/09 06:11:03;;;;;;;4.25;2.95;;;;;;;22.35;45.71;101080.53;1697869;83;21007;-72
2021/06/09 06:13:29;;;;;;;4.28;2.75;;;;;;;22.44;45.69;101070.70;1681880;84;21002;-71
2021/06/09 06:15:56;;;;;;;5.65;3.30;;;;;;;22.51;45.65;101072.27;1695385;84;21029;-72
2021/06/09 06:18:36;;;;;;;6.08;2.65;;;;;;;22.45;45.35;101077.81;1684957;84;21026;-72
2021/06/09 06:21:59;;;;;;;3.95;2.65;;;;;;;22.35;45.28;101078.34;1672707;85;21123;-76
2021/06/09 06:24:25;;;;;;;5.97;2.35;;;;;;;22.18;44.97;101072.73;1644071;85;21091;-70
2021/06/09 06:26:51;;;;;;;5.65;2.40;;;;;;;22.04;44.75;101075.84;1612408;88;21083;-70
2021/06/09 06:29:17;;;;;;;4.35;2.20;;;;;;;22.17;44.66;101075.14;1610683;87;21503;-70
2021/06/09 06:31:43;;;;;;;6.65;2.33;;;;;;;22.18;44.27;101080.05;1613792;87;21136;-71
2021/06/09 06:34:09;;;;;;;4.70;2.80;;;;;;;22.25;44.28;101076.71;1617324;88;21141;-71
2021/06/09 06:36:37;;;;;;;7.33;2.50;;;;;;;22.38;44.10;101073.27;1612751;88;21549;-71
2021/06/09 06:39:05;;;;;;;4.47;2.70;;;;;;;22.61;44.12;101079.86;1611292;89;21086;-71
2021/06/09 06:41:31;;;;;;;4.20;1.92;;;;;;;22.59;43.91;101077.36;1615160;87;21536;-71
2021/06/09 06:43:58;;;;;;;4.58;2.50;;;;;;;22.58;43.69;101080.33;1588381;89;21101;-71
2021/06/09 06:46:24;;;;;;;4.53;2.10;;;;;;;22.54;43.39;101081.84;1609515;88;21150;-71
2021/06/09 06:48:52;;;;;;;4.37;2.30;;;;;;;22.52;43.32;101073.11;1608854;88;21025;-71
2021/06/09 06:51:19;;;;;;;5.10;2.62;;;;;;;22.67;43.17;101082.51;1610948;89;21032;-70
2021/06/09 06:53:47;;;;;;;11.03;2.20;;;;;;;22.69;43.03;101074.13;1612833;89;21101;-70
2021/06/09 06:56:14;;;;;;;5.03;1.30;;;;;;;22.60;42.85;101079.02;1611918;89;21504;-71
2021/06/09 06:58:40;;;;;;;11.93;2.50;;;;;;;22.57;42.66;101086.81;1614040;88;21793;-71
2021/06/09 07:01:07;;;;;;;10.50;2.35;;;;;;;22.52;42.48;101083.98;1590151;89;21096;-71
2021/06/09 07:03:35;;;;;;;7.92;2.35;;;;;;;22.56;42.28;101079.71;1624205;87;21026;-71
2021/06/09 07:06:01;;;;;;;7.92;2.10;;;;;;;22.55;42.06;101078.91;1641726;87;21573;-70
2021/06/09 07:08:27;;;;;;;5.10;1.75;;;;;;;22.56;41.75;101079.71;1603511;88;21558;-70
2021/06/09 07:10:54;;;;;;;6.35;1.35;;;;;;;22.59;41.62;101084.71;1596120;90;21901;-70
2021/06/09 07:13:23;;;;;;;4.08;1.90;;;;;;;22.66;41.58;101080.00;1607774;89;21055;-70
2021/06/09 07:15:54;;;;;;;8.33;1.93;;;;;;;22.75;41.61;101086.78;1609921;87;21102;-71
2021/06/09 07:18:23;;;;;;;3.58;1.55;;;;;;;22.88;41.45;101087.41;1594751;89;21083;-71
2021/06/09 07:20:49;;;;;;;4.45;1.70;;;;;;;22.94;41.25;101078.82;1610626;87;21535;-71
2021/06/09 07:23:15;;;;;;;5.95;1.95;;;;;;;23.00;41.14;101087.43;1636561;87;21811;-70
2021/06/09 07:25:42;;;;;;;2.02;1.65;;;;;;;22.92;41.10;101077.41;1590184;89;21749;-70
2021/06/09 07:28:08;;;;;;;4.55;2.10;;;;;;;23.00;41.04;101087.43;1570864;90;21707;-70
2021/06/09 07:30:35;;;;;;;5.55;1.70;;;;;;;23.03;40.96;101082.05;1609292;87;21626;-71
2021/06/09 07:33:03;;;;;;;7.28;2.00;;;;;;;23.07;40.74;101085.42;1631856;87;21088;-70
2021/06/09 07:35:29;;;;;;;3.65;1.90;;;;;;;23.20;40.55;101079.75;1613536;88;21579;-70
2021/06/09 07:38:04;;;;;;;3.00;1.47;;;;;;;23.06;40.56;101082.41;1613231;88;21761;-70
2021/06/09 07:40:34;;;;;;;3.80;1.52;;;;;;;23.23;40.53;101088.80;1583546;90;21143;-70
2021/06/09 07:43:04;;;;;;;3.40;1.30;;;;;;;22.95;40.32;101081.85;1560240;92;21099;-71
2021/06/09 07:45:30;;;;;;;5.05;1.92;;;;;;;22.94;40.44;101081.55;1585634;89;21094;-70
2021/06/09 07:47:57;;;;;;;5.80;1.95;;;;;;;23.11;40.47;101082.54;1606312;89;21514;-70
2021/06/09 07:50:27;;;;;;;5.45;1.70;;;;;;;23.19;40.30;101085.41;1616744;87;21062;-71
2021/06/09 07:52:55;;;;;;;2.55;1.55;;;;;;;23.33;40.29;101076.78;1608168;87;21071;-70
2021/06/09 07:55:21;;;;;;;5.97;1.77;;;;;;;23.37;40.15;101069.80;1607085;89;21086;-71
2021/06/09 07:57:47;;;;;;;2.75;2.00;;;;;;;23.44;40.20;101068.34;1607027;89;21086;-71
2021/06/09 08:00:14;;;;;;;3.75;1.75;;;;;;;23.49;40.19;101077.17;1607046;89;21378;-71
2021/06/09 08:02:41;;;;;;;7.97;2.00;;;;;;;23.60;40.21;101072.25;1606797;89;21063;-71
2021/06/09 08:05:09;;;;;;;5.90;1.47;;;;;;;23.62;40.17;101074.19;1607004;89;20939;-71
2021/06/09 08:07:38;;;;;;;3.60;1.60;;;;;;;23.83;40.27;101075.75;1606392;89;21082;-71
2021/06/09 08:10:07;;;;;;;4.42;1.65;;;;;;;24.05;40.08;101073.73;1609205;88;20981;-70
2021/06/09 08:12:33;;;;;;;2.17;1.60;;;;;;;24.02;39.99;101081.88;1606857;89;21460;-71
2021/06/09 08:15:01;;;;;;;4.67;1.92;;;;;;;24.07;40.16;101083.32;1606814;89;21641;-71
2021/06/09 08:17:27;;;;;;;11.20;2.17;;;;;;;24.17;39.80;101084.91;1605958;89;21066;-71
2021/06/09 08:19:53;;;;;;;6.03;1.90;;;;;;;24.20;39.72;101080.37;1582653;89;21142;-70
2021/06/09 08:22:20;;;;;;;4.72;1.55;;;;;;;24.41;39.84;101080.75;1606622;89;21050;-70
2021/06/09 08:24:46;;;;;;;6.58;1.60;;;;;;;24.51;39.78;101085.02;1615950;87;21768;-71
2021/06/09 08:27:12;;;;;;;2.30;1.60;;;;;;;24.38;39.66;101082.88;1625911;87;21007;-71
2021/06/09 08:29:38;;;;;;;5.95;1.90;;;;;;;24.42;39.56;101079.69;1629846;87;21043;-70
2021/06/09 08:32:06;;;;;;;8.58;1.40;;;;;;;24.42;39.51;101077.76;1621059;88;21080;-71
2021/06/09 08:34:32;;;;;;;3.83;1.22;;;;;;;24.61;39.52;101078.38;1620768;88;21078;-71
2021/06/09 08:36:58;;;;;;;5.35;1.60;;;;;;;24.79;39.23;101080.89;1620119;88;21838;-70
2021/06/09 08:39:26;;;;;;;4.40;1.77;;;;;;;24.76;39.00;101078.66;1601139;88;21022;-71
2021/06/09 08:41:54;;;;;;;5.20;2.08;;;;;;;24.77;38.90;101089.88;1647656;86;21061;-70
2021/06/09 08:44:22;;;;;;;7.80;1.75;;;;;;;24.81;38.52;101089.64;1650144;85;21023;-70
2021/06/09 08:46:49;;;;;;;3.75;1.55;;;;;;;24.90;38.37;101084.13;1648068;87;21050;-70
2021/06/09 08:49:18;;;;;;;4.90;2.10;;;;;;;24.97;38.25;101093.50;1673879;85;21638;-70
2021/06/09 08:51:45;;;;;;;;;;;;;;;24.82;38.12;101093.50;1650299;87;21544;-70
2021/06/09 08:54:11;;;;;;;4.00;1.72;;;;;;;24.76;38.15;101089.58;1667058;85;20158;-70
2021/06/09 08:56:38;;;;;;;4.17;1.60;;;;;;;24.58;38.13;101089.79;1660086;86;21028;-71
2021/06/09 08:59:05;;;;;;;4.95;1.65;;;;;;;24.61;38.11;101083.84;1620823;88;21072;-71
2021/06/09 09:01:33;;;;;;;4.47;1.60;;;;;;;24.59;38.11;101083.27;1621111;88;21801;-70
2021/06/09 09:04:00;;;;;;;5.72;1.25;;;;;;;24.66;37.99;101085.31;1620837;88;21047;-71
2021/06/09 09:06:26;;;;;;;9.73;1.50;;;;;;;24.68;37.93;101088.60;1620923;88;21522;-70
2021/06/09 09:08:55;;;;;;;11.35;1.75;;;;;;;24.74;37.51;101083.52;1621163;88;21496;-70
2021/06/09 09:11:22;;;;;;;4.03;1.30;;;;;;;24.57;37.18;101086.77;1628845;87;21074;-70
2021/06/09 09:13:48;;;;;;;4.25;1.30;;;;;;;24.51;37.09;101083.66;1592579;90;21725;-70
2021/06/09 09:16:14;;;;;;;3.08;1.75;;;;;;;24.54;37.17;101085.89;1659322;86;21480;-71
2021/06/09 09:18:47;;;;;;;3.52;1.32;;;;;;;24.50;37.20;101084.19;1658419;85;21552;-70
2021/06/09 09:21:16;;;;;;;8.55;1.67;;;;;;;24.49;37.29;101081.73;1645979;86;21089;-70
2021/06/09 09:23:49;;;;;;;9.20;1.50;;;;;;;24.50;37.05;101088.81;1626456;87;21105;-70
2021/06/09 09:26:29;;;;;;;6.58;1.20;;;;;;;24.61;36.83;101082.47;1622731;88;21543;-70
2021/06/09 09:29:21;;;;;;;3.20;1.15;;;;;;;24.52;36.42;101086.69;1622674;88;21133;-71
2021/06/09 09:31:56;;;;;;;1.98;1.05;;;;;;;24.51;36.19;101081.77;1622117;88;21534;-70
2021/06/09 09:34:42;;;;;;;1.50;1.27;;;;;;;24.38;35.79;101077.15;1615093;88;21943;-70
2021/06/09 09:37:25;;;;;;;2.72;1.07;;;;;;;24.29;35.69;101084.34;1623013;88;20952;-70
2021/06/09 09:39:54;;;;;;;7.80;1.42;;;;;;;24.20;35.92;101084.45;1597594;89;21517;-70
2021/06/09 09:42:34;;;;;;;5.67;1.72;;;;;;;24.40;35.82;101080.45;1597755;89;21030;-70
2021/06/09 09:45:30;;;;;;;7.53;1.20;;;;;;;24.43;35.71;101082.68;1597758;89;21043;-70
2021/06/09 09:48:16;;;;;;;4.25;1.32;;;;;;;24.46;35.64;101078.09;1597405;89;21058;-70
2021/06/09 09:50:46;;;;;;;4.65;1.85;;;;;;;24.72;35.79;101082.42;1597772;89;21147;-70
2021/06/09 09:53:21;;;;;;;6.85;1.75;;;;;;;24.79;35.82;101090.44;1597869;89;21625;-70
2021/06/09 09:56:05;;;;;;;4.67;1.10;;;;;;;24.68;35.94;101073.60;1597212;89;20915;-70
2021/06/09 09:58:35;;;;;;;4.25;1.37;;;;;;;24.61;35.94;101071.03;1586567;90;20996;-70
2021/06/09 10:01:21;;;;;;;1.52;1.30;;;;;;;24.71;35.96;101081.28;1586887;90;21070;-70
2021/06/09 10:03:50;;;;;;;3.30;1.05;;;;;;;24.64;35.57;101075.16;1587271;90;21529;-70
2021/06/09 10:06:27;;;;;;;1.50;1.40;;;;;;;24.59;35.70;101072.36;1586880;89;21602;-70
2021/06/09 10:08:56;;;;;;;9.13;1.80;;;;;;;24.66;35.78;101077.13;1587268;89;21052;-70
2021/06/09 10:11:24;;;;;;;6.05;1.60;;;;;;;24.67;35.86;101077.39;1587398;89;21389;-70
2021/06/09 10:13:50;;;;;;;2.65;1.47;;;;;;;24.66;35.68;101073.03;1592880;89;21083;-70
2021/06/09 10:16:28;;;;;;;4.78;1.42;;;;;;;24.83;35.88;101068.45;1584216;90;21070;-70
2021/06/09 10:19:09;;;;;;;4.10;1.30;;;;;;;24.91;35.67;101066.65;1612305;89;22500;-70
2021/06/09 10:22:02;;;;;;;2.98;1.47;;;;;;;24.88;35.48;101071.24;1612150;89;21047;-70
2021/06/09 10:24:28;;;;;;;7.65;1.82;;;;;;;24.95;35.41;101059.63;1584768;90;20991;-70
2021/06/09 10:27:01;;;;;;;4.83;1.82;;;;;;;24.97;35.32;101067.05;1614513;87;21039;-70
2021/06/09 10:29:29;;;;;;;3.72;1.42;;;;;;;25.09;35.39;101070.50;1650512;86;21033;-70
2021/06/09 10:32:02;;;;;;;3.80;1.10;;;;;;;25.20;35.38;101066.85;1650619;87;22577;-70
2021/06/09 10:34:30;;;;;;;3.62;1.42;;;;;;;25.16;35.27;101057.50;1649911;87;21009;-70
2021/06/09 10:36:58;;;;;;;3.63;1.10;;;;;;;25.23;35.19;101066.88;1650993;86;21026;-70
2021/06/09 10:39:27;;;;;;;6.20;1.15;;;;;;;25.25;34.93;101061.48;1650414;87;21018;-70
2021/06/09 10:41:55;;;;;;;2.70;1.10;;;;;;;25.32;34.70;101064.86;1650577;86;21171;-70
2021/06/09 10:44:24;;;;;;;2.30;1.60;;;;;;;25.47;34.63;101056.06;1631607;87;22413;-70
2021/06/09 10:46:55;;;;;;;8.40;2.15;;;;;;;25.46;34.45;101060.41;1650399;86;21474;-70
2021/06/09 10:49:22;;;;;;;1.85;1.37;;;;;;;25.41;34.52;101063.05;1653539;86;21013;-70
2021/06/09 10:51:54;;;;;;;7.03;1.60;;;;;;;25.37;34.55;101058.62;1650441;87;21014;-70
2021/06/09 10:54:23;;;;;;;4.30;1.60;;;;;;;25.44;34.63;101053.02;1650730;86;20974;-70
2021/06/09 10:56:48;;;;;;;3.02;1.55;;;;;;;25.40;34.67;101051.33;1650047;86;21474;-70
2021/06/09 10:59:18;;;;;;;3.35;1.65;;;;;;;25.52;34.76;101056.69;1650706;86;21068;-70
2021/06/09 11:01:44;;;;;;;14.45;1.98;;;;;;;25.52;34.66;101044.39;1644622;86;26504;-70
2021/06/09 11:04:11;;;;;;;3.12;1.20;;;;;;;25.35;34.72;101047.97;1639434;86;20936;-70
2021/06/09 11:06:44;;;;;;;2.42;1.10;;;;;;;25.28;34.65;101050.05;1610249;88;21041;-70
2021/06/09 11:09:27;;;;;;;2.05;1.57;;;;;;;25.02;34.44;101049.36;1610240;88;22147;-70
2021/06/09 11:12:16;;;;;;;1.42;1.17;;;;;;;24.91;34.49;101046.18;1609885;87;21082;-70
2021/06/09 11:14:57;;;;;;;3.62;1.10;;;;;;;24.90;34.54;101043.19;1612534;87;21057;-71
2021/06/09 11:17:54;;;;;;;8.43;1.20;;;;;;;24.93;34.40;101041.31;1609195;88;21553;-70
2021/06/09 11:20:37;;;;;;;5.35;0.98;;;;;;;24.71;34.30;101034.91;1609810;88;21063;-70
2021/06/09 11:23:10;;;;;;;2.15;1.20;;;;;;;24.69;34.44;101038.44;1609809;88;21501;-70
2021/06/09 11:25:43;;;;;;;5.35;1.40;;;;;;;24.93;34.49;101029.57;1609758;88;21083;-70
2021/06/09 11:28:18;;;;;;;2.70;1.10;;;;;;;25.11;34.36;101031.51;1612505;88;21078;-70
2021/06/09 11:30:56;;;;;;;1.72;1.40;;;;;;;25.29;34.29;101024.41;1640594;85;21077;-70
2021/06/09 11:33:53;;;;;;;1.72;1.30;;;;;;;25.17;34.37;101023.67;1640194;85;21119;-70
2021/06/09 11:36:24;;;;;;;2.17;1.47;;;;;;;25.03;34.41;101026.99;1606103;88;21571;-70
2021/06/09 11:38:53;;;;;;;1.45;1.17;;;;;;;25.03;34.32;101022.36;1605580;89;21031;-70
2021/06/09 11:41:29;;;;;;;3.40;1.27;;;;;;;25.32;34.30;101020.34;1640219;86;21041;-70